createdAt,value
2023-05-05T00:01:08.526Z,88.45
2023-05-05T00:03:35.653Z,88.83
2023-05-05T00:06:02.756Z,89.58
2023-05-05T00:08:29.253Z,90.01
2023-05-05T00:10:56.525Z,90.07
2023-05-05T00:13:23.514Z,89.35
2023-05-05T00:15:52.378Z,89.86
2023-05-05T00:18:19.804Z,89.73
2023-05-05T00:20:47.332Z,90.51
2023-05-05T00:23:14.839Z,90.45
2023-05-05T00:25:41.579Z,91.56
2023-05-05T00:28:08.103Z,91.00
2023-05-05T00:30:37.253Z,91.15
2023-05-05T00:33:03.873Z,91.64
2023-05-05T00:35:30.394Z,92.32
2023-05-05T00:37:56.878Z,92.78
2023-05-05T00:40:23.518Z,93.12
2023-05-05T00:42:52.566Z,93.71
2023-05-05T00:45:19.985Z,93.04
2023-05-05T00:47:49.183Z,92.94
2023-05-05T00:50:25.898Z,92.68
2023-05-05T00:53:10.576Z,93.10
2023-05-05T00:55:37.132Z,92.47
2023-05-05T00:58:06.457Z,92.62
2023-05-05T01:00:33.356Z,92.67
2023-05-05T01:02:59.958Z,92.93
2023-05-05T01:05:38.419Z,92.60
2023-05-05T01:08:07.900Z,92.28
2023-05-05T01:10:59.232Z,92.27
2023-05-05T01:13:42.604Z,93.11
2023-05-05T01:16:18.335Z,93.92
2023-05-05T01:19:03.014Z,93.94
2023-05-05T01:21:36.105Z,94.55
2023-05-05T01:24:11.623Z,95.62
2023-05-05T01:27:09.413Z,96.40
2023-05-05T01:30:00.896Z,95.87
2023-05-05T01:32:29.954Z,96.51
2023-05-05T01:35:01.952Z,96.78
2023-05-05T01:37:54.286Z,96.55
2023-05-05T01:40:25.969Z,95.67
2023-05-05T01:42:54.173Z,95.74
2023-05-05T01:45:24.797Z,95.33
2023-05-05T01:47:53.497Z,95.09
2023-05-05T01:50:21.295Z,95.79
2023-05-05T01:52:48.768Z,96.34
2023-05-05T01:55:18.286Z,96.15
2023-05-05T01:57:47.138Z,96.52
2023-05-05T02:00:15.458Z,97.49
2023-05-05T02:02:45.074Z,98.24
2023-05-05T02:05:13.070Z,99.19
2023-05-05T02:07:39.817Z,99.23
2023-05-05T02:10:08.229Z,99.02
2023-05-05T02:12:37.069Z,98.78
2023-05-05T02:15:05.368Z,98.95
2023-05-05T02:17:32.707Z,99.11
2023-05-05T02:20:02.007Z,99.00
2023-05-05T02:22:28.770Z,99.30
2023-05-05T02:24:55.420Z,99.57
2023-05-05T02:27:23.887Z,98.55
2023-05-05T02:29:58.555Z,97.30
2023-05-05T02:32:33.981Z,95.48
2023-05-05T02:35:15.475Z,93.99
2023-05-05T02:37:49.035Z,93.40
2023-05-05T02:40:22.372Z,93.07
2023-05-05T02:42:51.322Z,92.55
2023-05-05T02:45:21.479Z,92.21
2023-05-05T02:47:49.478Z,92.61
2023-05-05T02:50:16.186Z,93.29
2023-05-05T02:52:51.864Z,94.11
2023-05-05T02:55:20.166Z,93.90
2023-05-05T02:57:52.773Z,94.59
2023-05-05T03:00:23.976Z,94.97
2023-05-05T03:03:16.286Z,94.84
2023-05-05T03:06:07.324Z,94.77
2023-05-05T03:08:44.385Z,94.09
2023-05-05T03:11:32.106Z,93.41
2023-05-05T03:14:21.006Z,92.84
2023-05-05T03:16:49.847Z,92.23
2023-05-05T03:19:19.319Z,92.36
2023-05-05T03:21:48.594Z,92.18
2023-05-05T03:24:17.160Z,92.18
2023-05-05T03:26:49.931Z,91.78
2023-05-05T03:29:19.758Z,92.06
2023-05-05T03:31:46.389Z,92.25
2023-05-05T03:34:13.581Z,92.20
2023-05-05T03:36:45.718Z,93.03
2023-05-05T03:39:14.623Z,93.46
2023-05-05T03:41:41.297Z,94.03
2023-05-05T03:44:09.614Z,94.44
2023-05-05T03:46:36.908Z,94.87
2023-05-05T03:49:05.133Z,95.63
2023-05-05T03:51:32.590Z,95.77
2023-05-05T03:53:59.665Z,95.44
2023-05-05T03:56:26.771Z,94.96
2023-05-05T03:58:53.246Z,95.38
2023-05-05T04:01:19.748Z,95.49
2023-05-05T04:03:46.465Z,95.25
2023-05-05T04:06:13.070Z,95.31
2023-05-05T04:08:39.530Z,95.73
2023-05-05T04:11:05.978Z,95.86
2023-05-05T04:13:34.041Z,96.06
2023-05-05T04:16:01.928Z,95.83
2023-05-05T04:18:28.962Z,95.32
2023-05-05T04:20:55.450Z,95.83
2023-05-05T04:23:22.635Z,95.80
2023-05-05T04:25:49.802Z,95.31
2023-05-05T04:28:16.355Z,95.29
2023-05-05T04:30:42.786Z,95.78
2023-05-05T04:33:09.331Z,95.40
2023-05-05T04:35:35.872Z,95.23
2023-05-05T04:38:02.388Z,95.14
2023-05-05T04:40:28.908Z,94.29
2023-05-05T04:42:57.098Z,93.88
2023-05-05T04:45:23.757Z,94.03
2023-05-05T04:47:50.393Z,92.99
2023-05-05T04:50:16.908Z,92.74
2023-05-05T04:52:43.383Z,92.86
2023-05-05T04:55:10.636Z,92.57
2023-05-05T04:57:37.270Z,92.88
2023-05-05T05:00:05.244Z,93.12
2023-05-05T05:02:32.261Z,93.18
2023-05-05T05:04:58.735Z,93.61
2023-05-05T05:07:26.001Z,93.18
2023-05-05T05:09:52.549Z,93.62
2023-05-05T05:12:19.263Z,93.21
2023-05-05T05:14:45.855Z,93.28
2023-05-05T05:17:12.418Z,92.59
2023-05-05T05:19:39.172Z,92.68
2023-05-05T05:22:05.726Z,91.20
2023-05-05T05:24:36.403Z,88.84
2023-05-05T05:27:03.168Z,86.65
2023-05-05T05:29:29.983Z,85.92
2023-05-05T05:31:59.379Z,85.99
2023-05-05T05:34:26.007Z,85.06
2023-05-05T05:36:52.688Z,85.40
2023-05-05T05:39:19.371Z,83.70
2023-05-05T05:41:45.818Z,83.51
2023-05-05T05:44:12.549Z,84.10
2023-05-05T05:46:39.199Z,84.32
2023-05-05T05:49:06.002Z,85.06
2023-05-05T05:51:32.523Z,84.06
2023-05-05T05:53:59.104Z,84.21
2023-05-05T05:56:25.942Z,82.57
2023-05-05T05:58:52.922Z,83.00
2023-05-05T06:01:19.766Z,82.05
2023-05-05T06:03:46.959Z,81.41
2023-05-05T06:06:13.576Z,79.30
2023-05-05T06:08:40.114Z,80.70
2023-05-05T06:11:06.736Z,78.31
2023-05-05T06:13:34.075Z,78.90
2023-05-05T06:16:00.758Z,77.58
2023-05-05T06:18:27.685Z,78.07
2023-05-05T06:20:54.124Z,78.21
2023-05-05T06:23:25.103Z,77.93
2023-05-05T06:25:57.111Z,77.75
2023-05-05T06:28:23.627Z,79.82
2023-05-05T06:30:50.005Z,78.42
2023-05-05T06:33:16.505Z,77.54
2023-05-05T06:35:42.927Z,79.29
2023-05-05T06:38:09.771Z,81.72
2023-05-05T06:40:36.275Z,78.94
2023-05-05T06:43:02.729Z,78.18
2023-05-05T06:45:34.956Z,78.63
2023-05-05T06:48:01.513Z,78.23
2023-05-05T06:50:28.261Z,78.32
2023-05-05T06:52:54.720Z,78.45
2023-05-05T06:55:21.467Z,77.45
2023-05-05T06:57:48.858Z,76.33
2023-05-05T07:00:16.838Z,77.61
2023-05-05T07:02:43.494Z,77.33
2023-05-05T07:05:10.426Z,75.79
2023-05-05T07:07:37.136Z,76.32
2023-05-05T07:10:03.790Z,76.44
2023-05-05T07:12:33.213Z,75.88
2023-05-05T07:15:00.702Z,77.29
2023-05-05T07:17:29.604Z,76.53
2023-05-05T07:19:56.064Z,78.15
2023-05-05T07:22:22.544Z,77.17
2023-05-05T07:24:49.811Z,76.21
2023-05-05T07:27:17.748Z,75.20
2023-05-05T07:29:44.232Z,75.32
2023-05-05T07:32:10.825Z,74.76
2023-05-05T07:34:37.982Z,76.50
2023-05-05T07:37:05.106Z,74.94
2023-05-05T07:39:32.022Z,75.31
2023-05-05T07:41:58.593Z,77.88
2023-05-05T07:44:25.600Z,80.10
2023-05-05T07:46:52.018Z,82.18
2023-05-05T07:49:19.580Z,81.71
2023-05-05T07:51:46.274Z,79.75
2023-05-05T07:54:12.755Z,79.11
2023-05-05T07:56:39.246Z,80.75
2023-05-05T07:59:05.849Z,79.91
2023-05-05T08:01:32.325Z,80.86
2023-05-05T08:03:58.886Z,81.66
2023-05-05T08:06:27.708Z,81.72
2023-05-05T08:08:55.233Z,82.07
2023-05-05T08:11:22.055Z,81.23
2023-05-05T08:13:48.850Z,80.15
2023-05-05T08:16:15.682Z,80.82
2023-05-05T08:18:42.939Z,81.40
2023-05-05T08:21:10.198Z,80.23
2023-05-05T08:23:37.707Z,79.61
2023-05-05T08:26:11.889Z,78.78
2023-05-05T08:28:38.361Z,77.14
2023-05-05T08:31:06.492Z,77.34
2023-05-05T08:33:32.952Z,75.58
2023-05-05T08:35:59.415Z,74.86
2023-05-05T08:38:25.895Z,75.28
2023-05-05T08:40:52.886Z,73.61
2023-05-05T08:43:22.631Z,76.55
2023-05-05T08:45:49.766Z,75.66
2023-05-05T08:48:19.374Z,76.34
2023-05-05T08:50:51.515Z,75.75
2023-05-05T08:53:44.184Z,75.92
2023-05-05T08:56:14.509Z,76.10
2023-05-05T08:58:42.897Z,75.32
2023-05-05T09:01:10.692Z,76.06
2023-05-05T09:03:38.655Z,75.09
2023-05-05T09:06:05.764Z,74.57
2023-05-05T09:08:33.270Z,74.63
2023-05-05T09:11:02.087Z,73.67
2023-05-05T09:13:31.010Z,75.05
2023-05-05T09:16:00.428Z,74.15
2023-05-05T09:18:27.130Z,74.80
2023-05-05T09:20:53.564Z,74.50
2023-05-05T09:23:21.372Z,74.13
2023-05-05T09:26:04.291Z,74.52
2023-05-05T09:28:31.332Z,75.01
2023-05-05T09:31:12.661Z,75.76
2023-05-05T09:33:39.288Z,75.54
2023-05-05T09:36:06.158Z,74.28
2023-05-05T09:38:33.032Z,76.45
2023-05-05T09:40:59.441Z,76.31
2023-05-05T09:43:26.066Z,75.77
2023-05-05T09:46:07.352Z,76.09
2023-05-05T09:48:33.897Z,76.31
2023-05-05T09:51:00.666Z,75.78
2023-05-05T09:53:37.666Z,77.35
2023-05-05T09:56:04.362Z,81.47
2023-05-05T09:58:31.301Z,78.92
2023-05-05T10:00:58.836Z,79.28
2023-05-05T10:03:26.084Z,80.55
2023-05-05T10:05:55.683Z,81.07
2023-05-05T10:08:25.021Z,81.45
2023-05-05T10:10:56.553Z,80.48
2023-05-05T10:13:24.907Z,80.57
2023-05-05T10:15:56.553Z,78.77
2023-05-05T10:18:25.138Z,78.58
2023-05-05T10:21:04.329Z,79.59
2023-05-05T10:23:48.753Z,78.41
2023-05-05T10:26:17.044Z,78.98
2023-05-05T10:29:01.342Z,78.77
2023-05-05T10:31:36.276Z,78.99
2023-05-05T10:34:26.997Z,80.14
2023-05-05T10:36:55.092Z,79.68
2023-05-05T10:39:23.541Z,80.20
2023-05-05T10:41:51.601Z,79.02
2023-05-05T10:44:18.219Z,78.21
2023-05-05T10:46:45.126Z,79.92
2023-05-05T10:49:25.063Z,79.08
2023-05-05T10:52:00.751Z,77.77
2023-05-05T10:54:38.251Z,79.22
2023-05-05T10:57:07.072Z,78.60
2023-05-05T10:59:36.704Z,77.86
2023-05-05T11:02:21.375Z,76.45
2023-05-05T11:05:07.107Z,74.40
2023-05-05T11:07:34.431Z,71.36
2023-05-05T11:10:03.291Z,70.88
2023-05-05T11:12:32.199Z,68.25
2023-05-05T11:15:33.509Z,67.40
2023-05-05T11:18:07.003Z,68.22
2023-05-05T11:20:37.583Z,65.30
2023-05-05T11:23:04.313Z,64.50
2023-05-05T11:25:37.886Z,61.72
2023-05-05T11:28:11.125Z,62.32
2023-05-05T11:30:56.129Z,61.88
2023-05-05T11:33:29.113Z,62.36
2023-05-05T11:36:09.808Z,60.06
2023-05-05T11:38:36.267Z,57.84
2023-05-05T11:41:12.690Z,57.23
2023-05-05T11:43:40.021Z,58.08
2023-05-05T11:46:16.761Z,57.69
2023-05-05T11:48:46.679Z,57.06
2023-05-05T11:51:17.318Z,57.34
2023-05-05T11:53:44.521Z,57.07
2023-05-05T11:56:12.590Z,55.28
2023-05-05T11:58:39.233Z,55.35
2023-05-05T12:01:08.950Z,55.61
2023-05-05T12:03:36.889Z,55.99
2023-05-05T12:06:04.562Z,57.31
2023-05-05T12:08:37.684Z,57.28
2023-05-05T12:11:06.500Z,56.93
2023-05-05T12:13:33.085Z,57.43
2023-05-05T12:16:09.466Z,55.57
2023-05-05T12:18:36.028Z,55.83
2023-05-05T12:21:12.526Z,55.54
2023-05-05T12:23:39.137Z,57.47
2023-05-05T12:26:05.660Z,55.76
2023-05-05T12:28:46.414Z,55.42
2023-05-05T12:31:13.409Z,54.27
2023-05-05T12:33:41.132Z,54.45
2023-05-05T12:36:08.738Z,54.90
2023-05-05T12:38:36.124Z,56.80
2023-05-05T12:41:02.655Z,54.07
2023-05-05T12:43:34.146Z,52.66
2023-05-05T12:46:06.296Z,51.91
2023-05-05T12:48:34.133Z,48.99
2023-05-05T12:51:21.052Z,48.06
2023-05-05T12:53:48.492Z,51.78
2023-05-05T12:56:34.009Z,51.55
2023-05-05T12:59:05.748Z,52.57
2023-05-05T13:01:32.981Z,52.06
2023-05-05T13:04:14.993Z,51.81
2023-05-05T13:06:46.469Z,51.55
2023-05-05T13:09:24.051Z,50.56
2023-05-05T13:11:50.667Z,50.92
2023-05-05T13:14:17.150Z,51.69
2023-05-05T13:16:43.686Z,53.48
2023-05-05T13:19:10.107Z,55.33
2023-05-05T13:21:36.640Z,56.13
2023-05-05T13:24:18.343Z,56.05
2023-05-05T13:26:51.380Z,56.51
2023-05-05T13:29:18.670Z,56.62
2023-05-05T13:31:45.804Z,55.60
2023-05-05T13:34:12.401Z,55.16
2023-05-05T13:36:38.834Z,55.05
2023-05-05T13:39:05.318Z,55.40
2023-05-05T13:41:31.725Z,55.54
2023-05-05T13:43:58.158Z,55.51
2023-05-05T13:46:24.678Z,55.31
2023-05-05T13:48:56.069Z,57.32
2023-05-05T13:51:22.985Z,59.85
2023-05-05T13:53:49.609Z,61.58
2023-05-05T13:56:17.760Z,62.90
2023-05-05T13:58:44.208Z,64.48
2023-05-05T14:01:10.978Z,65.42
2023-05-05T14:03:39.460Z,64.05
2023-05-05T14:06:06.890Z,64.42
2023-05-05T14:08:33.543Z,62.06
2023-05-05T14:11:00.005Z,62.68
2023-05-05T14:13:26.639Z,60.22
2023-05-05T14:15:53.713Z,58.86
2023-05-05T14:18:20.752Z,58.06
2023-05-05T14:20:47.250Z,57.46
2023-05-05T14:23:13.664Z,54.46
2023-05-05T14:25:40.129Z,54.37
2023-05-05T14:28:07.141Z,54.42
2023-05-05T14:30:33.718Z,54.48
2023-05-05T14:33:01.268Z,54.01
2023-05-05T14:35:27.909Z,53.36
2023-05-05T14:37:54.322Z,53.37
2023-05-05T14:40:20.874Z,57.65
2023-05-05T14:42:47.301Z,56.37
2023-05-05T14:45:13.826Z,57.81
2023-05-05T14:47:40.351Z,61.03
2023-05-05T14:50:09.624Z,62.36
2023-05-05T14:52:40.214Z,62.69
2023-05-05T14:55:07.997Z,61.39
2023-05-05T14:57:34.780Z,59.85
2023-05-05T15:00:01.394Z,59.01
2023-05-05T15:02:27.894Z,58.95
2023-05-05T15:04:54.415Z,59.56
2023-05-05T15:07:22.513Z,59.40
2023-05-05T15:09:48.987Z,61.51
2023-05-05T15:12:15.493Z,60.85
2023-05-05T15:14:42.178Z,60.81
2023-05-05T15:17:08.644Z,61.85
2023-05-05T15:19:35.066Z,62.54
2023-05-05T15:22:01.544Z,64.17
2023-05-05T15:24:28.118Z,64.23
2023-05-05T15:26:54.647Z,69.63
2023-05-05T15:29:21.444Z,73.63
2023-05-05T15:31:47.915Z,74.57
2023-05-05T15:34:14.468Z,75.52
2023-05-05T15:36:40.879Z,85.79
2023-05-05T15:39:07.365Z,92.24
2023-05-05T15:41:34.224Z,93.34
2023-05-05T15:44:02.032Z,100.00
2023-05-05T15:46:31.638Z,97.03
2023-05-05T15:48:58.151Z,100.00
2023-05-05T15:51:24.614Z,100.00
2023-05-05T15:53:52.310Z,100.00
2023-05-05T15:56:19.160Z,100.00
2023-05-05T15:58:45.691Z,100.00
2023-05-05T16:01:12.294Z,100.00
2023-05-05T16:03:38.787Z,100.00
2023-05-05T16:06:05.402Z,100.00
2023-05-05T16:08:32.066Z,100.00
2023-05-05T16:10:58.483Z,100.00
2023-05-05T16:13:24.914Z,100.00
2023-05-05T16:15:51.393Z,100.00
2023-05-05T16:18:17.843Z,100.00
2023-05-05T16:20:44.426Z,100.00
2023-05-05T16:23:10.969Z,100.00
2023-05-05T16:25:37.694Z,100.00
2023-05-05T16:28:04.476Z,100.00
2023-05-05T16:30:30.988Z,100.00
2023-05-05T16:32:57.591Z,100.00
2023-05-05T16:35:24.021Z,100.00
2023-05-05T16:37:50.535Z,100.00
2023-05-05T16:40:17.104Z,100.00
2023-05-05T16:42:44.561Z,100.00
2023-05-05T16:45:11.668Z,100.00
2023-05-05T16:47:38.347Z,100.00
2023-05-05T16:50:05.519Z,100.00
2023-05-05T16:52:31.966Z,100.00
2023-05-05T16:54:58.502Z,100.00
2023-05-05T16:57:25.010Z,100.00
2023-05-05T16:59:54.465Z,100.00
2023-05-05T17:02:21.105Z,100.00
2023-05-05T17:04:47.634Z,100.00
2023-05-05T17:07:14.143Z,100.00
2023-05-05T17:09:40.594Z,100.00
2023-05-05T17:12:07.230Z,100.00
2023-05-05T17:14:33.815Z,100.00
2023-05-05T17:17:00.315Z,100.00
2023-05-05T17:19:26.725Z,100.00
2023-05-05T17:21:54.203Z,100.00
2023-05-05T17:24:21.022Z,100.00
2023-05-05T17:26:47.544Z,100.00
2023-05-05T17:29:15.222Z,100.00
2023-05-05T17:31:41.953Z,100.00
2023-05-05T17:34:08.507Z,100.00
2023-05-05T17:36:35.451Z,100.00
2023-05-05T17:39:02.040Z,100.00
2023-05-05T17:41:28.459Z,100.00
2023-05-05T17:43:55.670Z,100.00
2023-05-05T17:46:22.260Z,100.00
2023-05-05T17:48:48.828Z,100.00
2023-05-05T17:51:15.381Z,100.00
2023-05-05T17:53:41.874Z,100.00
2023-05-05T17:56:09.034Z,100.00
2023-05-05T17:58:35.794Z,100.00
2023-05-05T18:01:02.281Z,100.00
2023-05-05T18:03:28.895Z,100.00
2023-05-05T18:05:56.026Z,100.00
2023-05-05T18:08:22.566Z,100.00
2023-05-05T18:10:49.224Z,100.00
2023-05-05T18:13:15.869Z,100.00
2023-05-05T18:15:42.416Z,100.00
2023-05-05T18:18:08.967Z,100.00
2023-05-05T18:20:35.456Z,100.00
2023-05-05T18:23:01.909Z,100.00
2023-05-05T18:25:28.377Z,100.00
2023-05-05T18:27:54.839Z,100.00
2023-05-05T18:30:21.375Z,100.00
2023-05-05T18:32:48.653Z,100.00
2023-05-05T18:35:15.560Z,100.00
2023-05-05T18:37:42.201Z,100.00
2023-05-05T18:40:09.967Z,100.00
2023-05-05T18:42:36.539Z,100.00
2023-05-05T18:45:03.176Z,100.00
2023-05-05T18:47:29.697Z,100.00
2023-05-05T18:49:56.348Z,100.00
2023-05-05T18:52:22.916Z,100.00
2023-05-05T18:54:49.474Z,100.00
2023-05-05T18:57:16.183Z,100.00
2023-05-05T18:59:42.662Z,100.00
2023-05-05T19:02:09.115Z,100.00
2023-05-05T19:04:37.823Z,100.00
2023-05-05T19:07:04.758Z,100.00
2023-05-05T19:09:31.351Z,100.00
2023-05-05T19:11:57.875Z,100.00
2023-05-05T19:14:24.389Z,100.00
2023-05-05T19:16:51.227Z,100.00
2023-05-05T19:19:18.124Z,100.00
2023-05-05T19:21:44.638Z,100.00
2023-05-05T19:24:11.816Z,100.00
2023-05-05T19:26:40.814Z,100.00
2023-05-05T19:29:07.350Z,100.00
2023-05-05T19:31:33.868Z,100.00
2023-05-05T19:34:02.313Z,100.00
2023-05-05T19:36:31.598Z,100.00
2023-05-05T19:39:01.582Z,100.00
2023-05-05T19:41:28.982Z,100.00
2023-05-05T19:43:55.536Z,100.00
2023-05-05T19:46:24.172Z,100.00
2023-05-05T19:48:50.587Z,100.00
2023-05-05T19:51:17.040Z,100.00
2023-05-05T19:53:43.823Z,100.00
2023-05-05T19:56:10.401Z,100.00
2023-05-05T19:58:57.193Z,100.00
2023-05-05T20:01:24.175Z,100.00
2023-05-05T20:03:52.260Z,100.00
2023-05-05T20:06:18.738Z,100.00
2023-05-05T20:08:45.297Z,100.00
2023-05-05T20:11:12.110Z,100.00
2023-05-05T20:13:39.011Z,100.00
2023-05-05T20:16:06.196Z,100.00
2023-05-05T20:18:33.073Z,100.00
2023-05-05T20:20:59.880Z,100.00
2023-05-05T20:23:26.912Z,100.00
2023-05-05T20:25:54.474Z,100.00
2023-05-05T20:28:21.048Z,100.00
2023-05-05T20:30:47.543Z,100.00
2023-05-05T20:33:13.969Z,100.00
2023-05-05T20:35:40.518Z,100.00
2023-05-05T20:38:07.016Z,100.00
2023-05-05T20:40:33.572Z,100.00
2023-05-05T20:43:00.210Z,100.00
2023-05-05T20:45:26.746Z,100.00
2023-05-05T20:47:53.386Z,100.00
2023-05-05T20:50:22.564Z,100.00
2023-05-05T20:52:49.513Z,100.00
2023-05-05T20:55:16.215Z,100.00
2023-05-05T20:57:42.636Z,100.00
2023-05-05T21:00:09.667Z,100.00
2023-05-05T21:02:36.464Z,100.00
2023-05-05T21:05:03.270Z,100.00
2023-05-05T21:07:31.145Z,100.00
2023-05-05T21:09:57.719Z,100.00
2023-05-05T21:12:24.148Z,100.00
2023-05-05T21:14:50.620Z,100.00
2023-05-05T21:17:17.047Z,100.00
2023-05-05T21:19:43.456Z,100.00
2023-05-05T21:22:09.914Z,100.00
2023-05-05T21:24:38.131Z,100.00
2023-05-05T21:27:04.612Z,100.00
2023-05-05T21:29:37.334Z,100.00
2023-05-05T21:32:08.276Z,100.00
2023-05-05T21:34:35.185Z,100.00
2023-05-05T21:37:01.726Z,100.00
2023-05-05T21:39:29.224Z,100.00
2023-05-05T21:41:55.658Z,100.00
2023-05-05T21:44:22.266Z,100.00
2023-05-05T21:46:48.771Z,100.00
2023-05-05T21:49:16.767Z,100.00
2023-05-05T21:51:44.274Z,100.00
2023-05-05T21:54:11.316Z,100.00
2023-05-05T21:56:38.003Z,100.00
2023-05-05T21:59:05.528Z,100.00
2023-05-05T22:01:32.291Z,100.00
2023-05-05T22:03:59.045Z,100.00
2023-05-05T22:06:25.672Z,100.00
2023-05-05T22:08:52.132Z,100.00
2023-05-05T22:11:18.848Z,100.00
2023-05-05T22:13:46.420Z,100.00
2023-05-05T22:16:15.896Z,100.00
2023-05-05T22:18:42.315Z,100.00
2023-05-05T22:21:08.915Z,100.00
2023-05-05T22:23:37.039Z,100.00
2023-05-05T22:26:04.735Z,100.00
2023-05-05T22:28:31.201Z,100.00
2023-05-05T22:30:57.611Z,100.00
2023-05-05T22:33:24.343Z,100.00
2023-05-05T22:35:51.922Z,100.00
2023-05-05T22:38:18.514Z,100.00
2023-05-05T22:40:45.358Z,100.00
2023-05-05T22:43:11.957Z,100.00
2023-05-05T22:45:38.462Z,100.00
2023-05-05T22:48:05.439Z,100.00
2023-05-05T22:50:32.059Z,100.00
2023-05-05T22:52:58.566Z,100.00
2023-05-05T22:55:25.174Z,100.00
2023-05-05T22:57:52.515Z,100.00
2023-05-05T23:00:19.414Z,100.00
2023-05-05T23:02:45.926Z,100.00
2023-05-05T23:05:12.742Z,100.00
2023-05-05T23:07:39.335Z,100.00
2023-05-05T23:10:06.304Z,100.00
2023-05-05T23:12:33.033Z,100.00
2023-05-05T23:14:59.560Z,100.00
2023-05-05T23:17:26.087Z,100.00
2023-05-05T23:19:52.735Z,100.00
2023-05-05T23:22:19.165Z,100.00
2023-05-05T23:24:45.690Z,100.00
2023-05-05T23:27:13.159Z,100.00
2023-05-05T23:29:39.642Z,100.00
2023-05-05T23:32:06.326Z,100.00
2023-05-05T23:34:32.824Z,100.00
2023-05-05T23:36:59.424Z,100.00
2023-05-05T23:39:25.829Z,100.00
2023-05-05T23:41:52.347Z,100.00
2023-05-05T23:44:18.964Z,100.00
2023-05-05T23:46:45.402Z,100.00
2023-05-05T23:49:11.834Z,100.00
2023-05-05T23:51:38.292Z,100.00
2023-05-05T23:54:04.792Z,100.00
2023-05-05T23:56:31.263Z,100.00
2023-05-05T23:58:57.713Z,100.00
